Time,TemperatureF,DewpointF,PressureIn,WindDirection,WindDirectionDegrees,WindSpeedMPH,WindSpeedGustMPH,Humidity,HourlyPrecipIn,Conditions,Clouds,dailyrainin,SoftwareType,DateUTC
2013-02-05 00:02:00,3.0,0.0,-100.00,SSW,205,4.0,7.0,84,-99.99,,,-99.99,,2013-02-05 05:02:00,
2013-02-05 00:22:00,3.0,-1.0,-100.00,WSW,245,2.0,6.0,84,-99.99,,,-99.99,,2013-02-05 05:22:00,
2013-02-05 00:32:00,3.0,0.0,-100.00,WSW,245,4.0,7.0,85,-99.99,,,-99.99,,2013-02-05 05:32:00,
2013-02-05 00:52:00,4.0,0.0,-100.00,West,265,2.0,7.0,84,-99.99,,,-99.99,,2013-02-05 05:52:00,
2013-02-05 01:21:00,4.0,0.0,-100.00,WSW,250,3.0,4.0,84,-99.99,,,-99.99,,2013-02-05 06:21:00,
2013-02-05 01:32:00,2.0,-1.0,-100.00,NNW,335,2.0,4.0,85,-99.99,,,-99.99,,2013-02-05 06:32:00,
2013-02-05 01:42:00,2.0,-1.0,-100.00,NNW,335,2.0,4.0,85,-99.99,,,-99.99,,2013-02-05 06:42:00,
2013-02-05 01:51:00,1.0,-2.0,-100.00,North,10,1.0,3.0,85,-99.99,,,-99.99,,2013-02-05 06:51:00,
2013-02-05 02:01:00,-3.0,-6.0,-100.00,WNW,290,1.0,2.0,85,-99.99,,,-99.99,,2013-02-05 07:01:00,
2013-02-05 02:11:00,-3.0,-6.0,-100.00,WNW,290,1.0,2.0,85,-99.99,,,-99.99,,2013-02-05 07:11:00,
2013-02-05 02:22:00,-1.0,-4.0,-100.00,WNW,300,2.0,3.0,86,-99.99,,,-99.99,,2013-02-05 07:22:00,
2013-02-05 02:32:00,-2.0,-5.0,-100.00,West,265,1.0,4.0,86,-99.99,,,-99.99,,2013-02-05 07:32:00,
2013-02-05 02:52:00,0.0,-3.0,-100.00,WNW,285,2.0,5.0,87,-99.99,,,-99.99,,2013-02-05 07:52:00,
2013-02-05 03:01:00,-2.0,-5.0,-100.00,West,275,2.0,4.0,86,-99.99,,,-99.99,,2013-02-05 08:01:00,
2013-02-05 03:21:00,-1.0,-4.0,-100.00,NNW,340,2.0,4.0,87,-99.99,,,-99.99,,2013-02-05 08:21:00,
2013-02-05 03:31:00,-1.0,-5.0,-100.00,North,0,2.0,3.0,86,-99.99,,,-99.99,,2013-02-05 08:31:00,
2013-02-05 03:52:00,0.0,-3.0,-100.00,SW,235,1.0,2.0,87,-99.99,,,-99.99,,2013-02-05 08:52:00,
2013-02-05 04:02:00,0.0,-3.0,-100.00,SE,140,4.0,5.0,87,-99.99,,,-99.99,,2013-02-05 09:02:00,
2013-02-05 04:21:00,1.0,-2.0,-100.00,SSE,155,2.0,4.0,88,-99.99,,,-99.99,,2013-02-05 09:21:00,
2013-02-05 04:32:00,1.0,-1.0,-100.00,SSW,195,1.0,2.0,88,-99.99,,,-99.99,,2013-02-05 09:32:00,
2013-02-05 04:51:00,2.0,-1.0,-100.00,WSW,240,3.0,4.0,88,-99.99,,,-99.99,,2013-02-05 09:51:00,
2013-02-05 05:02:00,2.0,-1.0,-100.00,SSE,165,3.0,5.0,88,-99.99,,,-99.99,,2013-02-05 10:02:00,
2013-02-05 05:11:00,2.0,-1.0,-100.00,SSE,165,3.0,5.0,88,-99.99,,,-99.99,,2013-02-05 10:11:00,
2013-02-05 05:21:00,2.0,0.0,-100.00,SSE,155,3.0,7.0,88,-99.99,,,-99.99,,2013-02-05 10:21:00,
2013-02-05 05:32:00,3.0,0.0,-100.00,South,175,4.0,5.0,88,-99.99,,,-99.99,,2013-02-05 10:32:00,
2013-02-05 05:42:00,3.0,0.0,-100.00,South,175,4.0,5.0,88,-99.99,,,-99.99,,2013-02-05 10:42:00,
2013-02-05 05:52:00,3.0,0.0,-100.00,South,180,4.0,7.0,87,-99.99,,,-99.99,,2013-02-05 10:52:00,
2013-02-05 06:01:00,4.0,0.0,-100.00,SSE,160,3.0,4.0,86,-99.99,,,-99.99,,2013-02-05 11:01:00,
2013-02-05 06:11:00,4.0,0.0,-100.00,SSE,160,3.0,4.0,86,-99.99,,,-99.99,,2013-02-05 11:11:00,
2013-02-05 06:22:00,4.0,1.0,-100.00,SSW,200,4.0,6.0,85,-99.99,,,-99.99,,2013-02-05 11:22:00,
2013-02-05 06:32:00,5.0,1.0,-100.00,South,190,5.0,9.0,83,-99.99,,,-99.99,,2013-02-05 11:32:00,
2013-02-05 06:42:00,5.0,1.0,-100.00,South,190,5.0,9.0,83,-99.99,,,-99.99,,2013-02-05 11:42:00,
2013-02-05 06:52:00,5.0,1.0,-100.00,SW,230,3.0,6.0,83,-99.99,,,-99.99,,2013-02-05 11:52:00,
2013-02-05 07:01:00,5.0,1.0,-100.00,WSW,240,5.0,8.0,83,-99.99,,,-99.99,,2013-02-05 12:01:00,
2013-02-05 07:12:00,5.0,1.0,-100.00,WSW,240,5.0,8.0,83,-99.99,,,-99.99,,2013-02-05 12:12:00,
2013-02-05 07:22:00,6.0,2.0,-100.00,SW,225,4.0,7.0,84,-99.99,,,-99.99,,2013-02-05 12:22:00,
2013-02-05 07:32:00,6.0,3.0,-100.00,SSW,205,4.0,10.0,87,-99.99,,,-99.99,,2013-02-05 12:32:00,
2013-02-05 07:42:00,6.0,3.0,-100.00,SSW,205,4.0,10.0,87,-99.99,,,-99.99,,2013-02-05 12:42:00,
2013-02-05 07:52:00,6.0,4.0,-100.00,SSE,165,6.0,9.0,88,-99.99,,,-99.99,,2013-02-05 12:52:00,
2013-02-05 08:01:00,7.0,5.0,-100.00,South,180,4.0,6.0,91,-99.99,,,-99.99,,2013-02-05 13:01:00,
2013-02-05 08:12:00,7.0,5.0,-100.00,South,180,4.0,6.0,91,-99.99,,,-99.99,,2013-02-05 13:12:00,
2013-02-05 08:22:00,8.0,6.0,-100.00,South,180,4.0,10.0,92,-99.99,,,-99.99,,2013-02-05 13:22:00,
2013-02-05 08:32:00,9.0,7.0,-100.00,East,90,2.0,6.0,93,-99.99,,,-99.99,,2013-02-05 13:32:00,
2013-02-05 08:42:00,9.0,7.0,-100.00,East,90,2.0,6.0,93,-99.99,,,-99.99,,2013-02-05 13:42:00,
2013-02-05 08:52:00,9.0,8.0,-100.00,South,175,5.0,9.0,94,-99.99,,,-99.99,,2013-02-05 13:52:00,
2013-02-05 09:01:00,10.0,9.0,-100.00,SSW,195,4.0,7.0,95,-99.99,,,-99.99,,2013-02-05 14:01:00,
2013-02-05 09:12:00,10.0,9.0,-100.00,SSW,195,4.0,7.0,95,-99.99,,,-99.99,,2013-02-05 14:12:00,
2013-02-05 09:21:00,10.0,9.0,-100.00,South,185,4.0,8.0,96,-99.99,,,-99.99,,2013-02-05 14:21:00,
2013-02-05 09:32:00,11.0,10.0,-100.00,South,190,4.0,9.0,96,-99.99,,,-99.99,,2013-02-05 14:32:00,
2013-02-05 09:42:00,11.0,10.0,-100.00,South,190,4.0,9.0,96,-99.99,,,-99.99,,2013-02-05 14:42:00,
2013-02-05 09:52:00,12.0,11.0,-100.00,South,185,5.0,11.0,97,-99.99,,,-99.99,,2013-02-05 14:52:00,
2013-02-05 10:02:00,12.0,12.0,-100.00,SW,230,8.0,11.0,98,-99.99,,,-99.99,,2013-02-05 15:02:00,
2013-02-05 10:11:00,12.0,12.0,-100.00,SW,230,8.0,11.0,98,-99.99,,,-99.99,,2013-02-05 15:11:00,
2013-02-05 10:21:00,12.0,12.0,-100.00,SW,235,6.0,9.0,98,-99.99,,,-99.99,,2013-02-05 15:21:00,
2013-02-05 10:32:00,13.0,12.0,-100.00,WSW,250,7.0,12.0,98,-99.99,,,-99.99,,2013-02-05 15:32:00,
2013-02-05 10:42:00,13.0,12.0,-100.00,WSW,250,7.0,12.0,98,-99.99,,,-99.99,,2013-02-05 15:42:00,
2013-02-05 10:52:00,12.0,12.0,-100.00,SW,220,6.0,12.0,97,-99.99,,,-99.99,,2013-02-05 15:52:00,
2013-02-05 11:01:00,12.0,11.0,-100.00,WSW,245,11.0,18.0,96,-99.99,,,-99.99,,2013-02-05 16:01:00,
2013-02-05 11:11:00,12.0,11.0,-100.00,WSW,245,11.0,18.0,96,-99.99,,,-99.99,,2013-02-05 16:11:00,
2013-02-05 11:22:00,12.0,11.0,-100.00,WSW,255,11.0,17.0,96,-99.99,,,-99.99,,2013-02-05 16:22:00,
2013-02-05 11:32:00,12.0,11.0,-100.00,WSW,250,9.0,13.0,95,-99.99,,,-99.99,,2013-02-05 16:32:00,
2013-02-05 11:42:00,12.0,11.0,-100.00,WSW,250,9.0,13.0,95,-99.99,,,-99.99,,2013-02-05 16:42:00,
2013-02-05 11:52:00,13.0,12.0,-100.00,West,270,8.0,15.0,94,-99.99,,,-99.99,,2013-02-05 16:52:00,
2013-02-05 12:01:00,13.0,12.0,-100.00,West,270,8.0,15.0,94,-99.99,,,-99.99,,2013-02-05 17:01:00,
2013-02-05 12:11:00,13.0,12.0,-100.00,West,270,8.0,15.0,94,-99.99,,,-99.99,,2013-02-05 17:11:00,
2013-02-05 12:22:00,13.0,12.0,-100.00,WSW,255,8.0,12.0,93,-99.99,,,-99.99,,2013-02-05 17:22:00,
2013-02-05 12:32:00,14.0,12.0,-100.00,West,265,5.0,12.0,92,-99.99,,,-99.99,,2013-02-05 17:32:00,
2013-02-05 12:42:00,14.0,12.0,-100.00,West,265,5.0,12.0,92,-99.99,,,-99.99,,2013-02-05 17:42:00,
2013-02-05 12:52:00,15.0,12.0,-100.00,WNW,295,8.0,14.0,90,-99.99,,,-99.99,,2013-02-05 17:52:00,
2013-02-05 13:02:00,15.0,12.0,-100.00,WNW,295,8.0,14.0,90,-99.99,,,-99.99,,2013-02-05 18:02:00,
2013-02-05 13:22:00,16.0,13.0,-100.00,WNW,290,9.0,18.0,88,-99.99,,,-99.99,,2013-02-05 18:22:00,
2013-02-05 13:32:00,17.0,13.0,-100.00,WNW,295,14.0,19.0,86,-99.99,,,-99.99,,2013-02-05 18:32:00,
2013-02-05 13:42:00,17.0,13.0,-100.00,WNW,295,14.0,19.0,86,-99.99,,,-99.99,,2013-02-05 18:42:00,
2013-02-05 13:52:00,17.0,13.0,-100.00,WNW,300,11.0,17.0,83,-99.99,,,-99.99,,2013-02-05 18:52:00,
2013-02-05 14:02:00,18.0,13.0,-100.00,West,275,11.0,21.0,82,-99.99,,,-99.99,,2013-02-05 19:02:00,
2013-02-05 14:11:00,18.0,13.0,-100.00,West,275,11.0,21.0,82,-99.99,,,-99.99,,2013-02-05 19:11:00,
2013-02-05 14:21:00,20.0,15.0,-100.00,NW,310,9.0,16.0,81,-99.99,,,-99.99,,2013-02-05 19:21:00,
2013-02-05 14:32:00,21.0,14.0,-100.00,NW,320,9.0,19.0,74,-99.99,,,-99.99,,2013-02-05 19:32:00,
2013-02-05 14:42:00,21.0,14.0,-100.00,NW,320,9.0,19.0,74,-99.99,,,-99.99,,2013-02-05 19:42:00,
2013-02-05 14:52:00,22.0,13.0,-100.00,WNW,300,11.0,20.0,68,-99.99,,,-99.99,,2013-02-05 19:52:00,
2013-02-05 15:01:00,22.0,13.0,-100.00,NW,310,11.0,19.0,67,-99.99,,,-99.99,,2013-02-05 20:01:00,
2013-02-05 15:11:00,22.0,13.0,-100.00,NW,310,11.0,19.0,67,-99.99,,,-99.99,,2013-02-05 20:11:00,
2013-02-05 15:21:00,23.0,13.0,-100.00,NW,310,11.0,21.0,66,-99.99,,,-99.99,,2013-02-05 20:21:00,
2013-02-05 15:32:00,23.0,14.0,-100.00,NNW,330,11.0,18.0,68,-99.99,,,-99.99,,2013-02-05 20:32:00,
2013-02-05 15:42:00,23.0,14.0,-100.00,NNW,330,11.0,18.0,68,-99.99,,,-99.99,,2013-02-05 20:42:00,
2013-02-05 15:52:00,24.0,14.0,-100.00,NNW,340,9.0,18.0,66,-99.99,,,-99.99,,2013-02-05 20:52:00,
2013-02-05 16:02:00,24.0,15.0,-100.00,North,5,6.0,11.0,67,-99.99,,,-99.99,,2013-02-05 21:02:00,
2013-02-05 16:11:00,24.0,15.0,-100.00,North,5,6.0,11.0,67,-99.99,,,-99.99,,2013-02-05 21:11:00,
2013-02-05 16:22:00,24.0,14.0,-100.00,NW,325,5.0,13.0,65,-99.99,,,-99.99,,2013-02-05 21:22:00,
2013-02-05 16:32:00,24.0,13.0,-100.00,NNW,340,9.0,16.0,63,-99.99,,,-99.99,,2013-02-05 21:32:00,
2013-02-05 16:42:00,24.0,13.0,-100.00,NNW,340,9.0,16.0,63,-99.99,,,-99.99,,2013-02-05 21:42:00,
2013-02-05 16:52:00,24.0,12.0,-100.00,NW,305,10.0,16.0,61,-99.99,,,-99.99,,2013-02-05 21:52:00,
2013-02-05 17:01:00,24.0,12.0,-100.00,NNW,335,9.0,16.0,60,-99.99,,,-99.99,,2013-02-05 22:01:00,
2013-02-05 17:11:00,24.0,12.0,-100.00,NNW,335,9.0,16.0,60,-99.99,,,-99.99,,2013-02-05 22:11:00,
2013-02-05 17:21:00,24.0,12.0,-100.00,NNW,340,9.0,19.0,59,-99.99,,,-99.99,,2013-02-05 22:21:00,
2013-02-05 17:32:00,24.0,12.0,-100.00,North,350,9.0,16.0,60,-99.99,,,-99.99,,2013-02-05 22:32:00,
2013-02-05 17:42:00,24.0,12.0,-100.00,North,350,9.0,16.0,60,-99.99,,,-99.99,,2013-02-05 22:42:00,
2013-02-05 17:51:00,24.0,12.0,-100.00,NNW,335,11.0,18.0,60,-99.99,,,-99.99,,2013-02-05 22:51:00,
2013-02-05 18:02:00,24.0,11.0,-100.00,NW,320,11.0,19.0,58,-99.99,,,-99.99,,2013-02-05 23:02:00,
2013-02-05 18:11:00,24.0,11.0,-100.00,NW,320,11.0,19.0,58,-99.99,,,-99.99,,2013-02-05 23:11:00,
2013-02-05 18:22:00,24.0,12.0,-100.00,NNW,345,9.0,19.0,59,-99.99,,,-99.99,,2013-02-05 23:22:00,
2013-02-05 18:32:00,23.0,13.0,-100.00,North,350,11.0,19.0,64,-99.99,,,-99.99,,2013-02-05 23:32:00,
2013-02-05 18:42:00,23.0,13.0,-100.00,North,350,11.0,19.0,64,-99.99,,,-99.99,,2013-02-05 23:42:00,
2013-02-05 18:52:00,22.0,16.0,-100.00,North,350,9.0,18.0,76,-99.99,,,-99.99,,2013-02-05 23:52:00,
2013-02-05 19:02:00,22.0,16.0,-100.00,NNW,340,11.0,17.0,77,-99.99,,,-99.99,,2013-02-06 00:02:00,
2013-02-05 19:11:00,22.0,16.0,-100.00,NNW,340,11.0,17.0,77,-99.99,,,-99.99,,2013-02-06 00:11:00,
2013-02-05 19:22:00,21.0,16.0,-100.00,NNW,340,8.0,14.0,79,-99.99,,,-99.99,,2013-02-06 00:22:00,
2013-02-05 19:32:00,21.0,16.0,-100.00,NNW,345,9.0,18.0,80,-99.99,,,-99.99,,2013-02-06 00:32:00,
2013-02-05 19:42:00,21.0,16.0,-100.00,NNW,345,9.0,18.0,80,-99.99,,,-99.99,,2013-02-06 00:42:00,
2013-02-05 19:52:00,20.0,15.0,-100.00,NNW,340,7.0,13.0,80,-99.99,,,-99.99,,2013-02-06 00:52:00,
2013-02-05 20:02:00,19.0,14.0,-100.00,NNE,25,6.0,11.0,81,-99.99,,,-99.99,,2013-02-06 01:02:00,
2013-02-05 20:12:00,19.0,14.0,-100.00,NNE,25,6.0,11.0,81,-99.99,,,-99.99,,2013-02-06 01:12:00,
2013-02-05 20:22:00,19.0,14.0,-100.00,North,10,4.0,11.0,82,-99.99,,,-99.99,,2013-02-06 01:22:00,
2013-02-05 20:32:00,18.0,13.0,-100.00,NNW,335,4.0,8.0,82,-99.99,,,-99.99,,2013-02-06 01:32:00,
2013-02-05 20:42:00,18.0,13.0,-100.00,NNW,335,4.0,8.0,82,-99.99,,,-99.99,,2013-02-06 01:42:00,
2013-02-05 20:52:00,18.0,14.0,-100.00,NNW,335,7.0,16.0,83,-99.99,,,-99.99,,2013-02-06 01:52:00,
2013-02-05 21:01:00,18.0,14.0,-100.00,North,355,5.0,10.0,85,-99.99,,,-99.99,,2013-02-06 02:01:00,
2013-02-05 21:11:00,18.0,14.0,-100.00,North,355,5.0,10.0,85,-99.99,,,-99.99,,2013-02-06 02:11:00,
2013-02-05 21:22:00,17.0,13.0,-100.00,NNE,15,5.0,11.0,86,-99.99,,,-99.99,,2013-02-06 02:22:00,
2013-02-05 21:32:00,16.0,13.0,-100.00,NNE,20,6.0,9.0,87,-99.99,,,-99.99,,2013-02-06 02:32:00,
2013-02-05 21:42:00,16.0,13.0,-100.00,NNE,20,6.0,9.0,87,-99.99,,,-99.99,,2013-02-06 02:42:00,
2013-02-05 21:52:00,16.0,13.0,-100.00,North,355,5.0,13.0,88,-99.99,,,-99.99,,2013-02-06 02:52:00,
2013-02-05 22:02:00,15.0,13.0,-100.00,NNW,340,6.0,12.0,88,-99.99,,,-99.99,,2013-02-06 03:02:00,
2013-02-05 22:12:00,15.0,13.0,-100.00,NNW,340,6.0,12.0,88,-99.99,,,-99.99,,2013-02-06 03:12:00,
2013-02-05 22:22:00,15.0,12.0,-100.00,NNW,345,6.0,11.0,87,-99.99,,,-99.99,,2013-02-06 03:22:00,
2013-02-05 22:32:00,14.0,11.0,-100.00,North,5,3.0,5.0,87,-99.99,,,-99.99,,2013-02-06 03:32:00,
2013-02-05 22:42:00,14.0,11.0,-100.00,North,5,3.0,5.0,87,-99.99,,,-99.99,,2013-02-06 03:42:00,
2013-02-05 22:52:00,14.0,11.0,-100.00,NNW,330,3.0,9.0,87,-99.99,,,-99.99,,2013-02-06 03:52:00,
2013-02-05 23:02:00,13.0,10.0,-100.00,NNW,335,4.0,8.0,87,-99.99,,,-99.99,,2013-02-06 04:02:00,
2013-02-05 23:11:00,13.0,10.0,-100.00,NNW,335,4.0,8.0,87,-99.99,,,-99.99,,2013-02-06 04:11:00,
2013-02-05 23:21:00,12.0,9.0,-100.00,NNW,340,5.0,9.0,86,-99.99,,,-99.99,,2013-02-06 04:21:00,
2013-02-05 23:32:00,12.0,8.0,-100.00,NNW,340,4.0,9.0,85,-99.99,,,-99.99,,2013-02-06 04:32:00,
2013-02-05 23:42:00,12.0,8.0,-100.00,NNW,340,4.0,9.0,85,-99.99,,,-99.99,,2013-02-06 04:42:00,
2013-02-05 23:52:00,10.0,7.0,-100.00,WNW,300,4.0,8.0,85,-99.99,,,-99.99,,2013-02-06 04:52:00,